Aeroporto :
LOGIN :

Iscrizione | Disclaimer

   EN    FR    IT 

 










Sommario :    VFR   VFR Marginale   IFR   IFR Intensivo   IFR Molto Intensivo
Visibilità : 
Base nubi : 
>= 8 km
>= 3000ft
5 / 8 km
1000 / 3000 ft
1500m / 5 km
500 / 1000 ft
800 / 1500m
200 / 500 ft
< 800m
< 200 ft
Simboli :   Temporali  Nebbia  Neve Forte  Precipitazioni Forti  Vento > 20 kt
SIGMETs :   Varie  Temporali  Ghiacco  Turbolenza  Onda orograficha  Ceneri Vulcaniche






- Altitudine del aeroporto : 7 ft
- Codice IATA : VCE


LIPZ - Marco Polo Int. Venezia

ULTIMO METAR :
  • 051520Z 15008KT 9999 FEW070 28/18 Q1005 NOSIG

METARs OBSOLETI :
  • 051450Z 16007KT 130V190 9999 FEW070 29/18 Q1004 NOSIG
  • 051420Z 16007KT 130V190 9999 FEW070 29/16 Q1005 NOSIG
  • 051350Z 16005KT 120V200 CAVOK 28/17 Q1005 NOSIG
  • 051320Z 18004KT 150V220 CAVOK 28/16 Q1005 NOSIG
  • 051250Z 19006KT CAVOK 27/16 Q1005 NOSIG

TAF TAF LIPZ
Valido dal 05 a 12 ore il 06 a 18 ore UTC


051100Z 0512/0618 VRB06KT CAVOK
BECMG 0512/0514 14012KT
BECMG 0519/0521 03007KT
TEMPO 0520/0601 4000 TSRA
BECMG 0611/0613 16011KT



MetMap, La meteo Aeronautica in un colpo d'occhio ! - Copyright ORBIFLY Dicembre 2007 - Disclaimer

ORBIFLY MET'MAP TEAM :

Programmazione e sviluppo : Alexandra Zaïnal
Concezione : Baudouin d'Aumeries
Aiuto per la programmazione : Marc-Olivier Méhu
Supporto tecnico e logistico : Manuel Goepfert
Aiuto per la traduzione : Arnaldo La Scala

Contatto : metmap@orbifly.com




FONTI E CREDITI :

   NOAA